Time;durP1;ratioP1;P1;durP2;ratioP2;P2;SDS_P1;SDS_P2;PMS_P1;PMS_P2;Temp;Humidity;BMP_temperature;BMP_pressure;BME280_temperature;BME280_humidity;BME280_pressure;Samples;Min_cycle;Max_cycle;Signal;HPM_P1;HPM_P2
2023/05/30 00:02:01;;;;;;;4.53;3.07;;;13.90;99.90;;;;;;5103944;28;20217;-77
2023/05/30 00:04:30;;;;;;;6.07;3.57;;;13.90;99.90;;;;;;5115733;28;20202;-77
2023/05/30 00:06:58;;;;;;;3.50;2.90;;;13.90;99.90;;;;;;5115674;28;20568;-79
2023/05/30 00:09:27;;;;;;;5.20;3.33;;;13.90;99.90;;;;;;5115216;28;20293;-78
2023/05/30 00:11:57;;;;;;;6.50;3.40;;;13.90;99.90;;;;;;5096450;28;20226;-80
2023/05/30 00:14:26;;;;;;;5.17;3.43;;;13.90;99.90;;;;;;5094701;28;20214;-77
2023/05/30 00:16:56;;;;;;;4.23;3.37;;;13.90;99.90;;;;;;5094550;28;20206;-77
2023/05/30 00:19:24;;;;;;;5.87;3.67;;;13.90;99.90;;;;;;5094282;28;20214;-79
2023/05/30 00:21:54;;;;;;;5.00;3.33;;;13.90;99.90;;;;;;5094289;28;20230;-77
2023/05/30 00:24:23;;;;;;;4.90;3.60;;;13.80;99.90;;;;;;5094531;28;20207;-78
2023/05/30 00:26:51;;;;;;;5.10;3.43;;;13.80;99.90;;;;;;5105848;28;20407;-78
2023/05/30 00:29:20;;;;;;;5.73;3.90;;;13.80;99.90;;;;;;5095713;28;20313;-76
2023/05/30 00:31:48;;;;;;;5.70;3.77;;;13.70;99.90;;;;;;5094137;28;20668;-78
2023/05/30 00:34:16;;;;;;;4.23;3.37;;;13.70;99.90;;;;;;5094454;28;20292;-77
2023/05/30 00:36:44;;;;;;;4.97;3.40;;;13.60;99.90;;;;;;5094089;28;20221;-77
2023/05/30 00:39:13;;;;;;;4.47;3.30;;;13.60;99.90;;;;;;5094292;28;20626;-76
2023/05/30 00:41:42;;;;;;;5.10;3.63;;;13.50;99.90;;;;;;5094134;28;20582;-78
2023/05/30 00:44:10;;;;;;;5.03;3.40;;;13.50;99.90;;;;;;5094071;28;20215;-77
2023/05/30 00:46:40;;;;;;;5.20;3.57;;;13.40;99.90;;;;;;5105181;28;20210;-79
2023/05/30 00:49:09;;;;;;;6.73;3.80;;;13.40;99.90;;;;;;5113738;28;20579;-77
2023/05/30 00:51:37;;;;;;;6.17;4.00;;;13.30;99.90;;;;;;5114964;28;20583;-77
2023/05/30 00:54:06;;;;;;;6.40;4.17;;;13.30;99.90;;;;;;5114173;28;20624;-76
2023/05/30 00:56:35;;;;;;;6.83;3.80;;;13.30;99.90;;;;;;5102844;28;20208;-78
2023/05/30 00:59:03;;;;;;;5.37;3.50;;;13.20;99.90;;;;;;5093904;28;20228;-78
2023/05/30 01:01:32;;;;;;;5.60;3.43;;;13.20;99.90;;;;;;5093523;28;20712;-77
2023/05/30 01:04:02;;;;;;;6.83;3.90;;;13.20;99.90;;;;;;5094002;28;20210;-78
2023/05/30 01:06:30;;;;;;;6.20;3.30;;;13.10;99.90;;;;;;5114315;28;20620;-78
2023/05/30 01:08:59;;;;;;;6.40;3.77;;;13.10;99.90;;;;;;5114229;28;20572;-78
2023/05/30 01:11:40;;;;;;;4.07;3.10;;;13.10;99.90;;;;;;5114337;28;20568;-78
2023/05/30 01:14:14;;;;;;;5.27;3.60;;;13.10;99.90;;;;;;5076417;28;20629;-77
2023/05/30 01:16:48;;;;;;;6.40;3.73;;;13.00;99.90;;;;;;5093673;28;20244;-78
2023/05/30 01:19:46;;;;;;;7.53;3.80;;;13.00;99.90;;;;;;5093388;28;20203;-78
2023/05/30 01:22:22;;;;;;;6.47;3.43;;;13.00;99.90;;;;;;5093167;28;20280;-77
2023/05/30 01:25:06;;;;;;;4.53;3.47;;;12.90;99.90;;;;;;5099570;28;20659;-75
2023/05/30 01:27:43;;;;;;;4.50;3.40;;;12.90;99.90;;;;;;5113397;28;20213;-77
2023/05/30 01:30:14;;;;;;;8.00;3.83;;;12.90;99.90;;;;;;5099192;28;20221;-76
2023/05/30 01:32:42;;;;;;;5.00;3.67;;;12.90;99.90;;;;;;5092933;28;20221;-78
2023/05/30 01:35:22;;;;;;;6.73;3.60;;;12.90;99.90;;;;;;5093372;28;20295;-77
2023/05/30 01:37:50;;;;;;;5.67;3.70;;;12.90;99.90;;;;;;5093155;28;20287;-78
2023/05/30 01:40:23;;;;;;;6.67;3.50;;;12.90;99.90;;;;;;5092643;28;20587;-77
2023/05/30 01:42:58;;;;;;;4.67;3.50;;;12.80;99.90;;;;;;5092951;28;20289;-75
2023/05/30 01:45:38;;;;;;;4.83;3.40;;;12.80;99.90;;;;;;5092757;28;20210;-77
2023/05/30 01:48:12;;;;;;;8.27;3.90;;;12.80;99.90;;;;;;5092843;28;20294;-78
2023/05/30 01:50:44;;;;;;;7.00;3.27;;;12.80;99.90;;;;;;5093138;28;20244;-77
2023/05/30 01:53:18;;;;;;;3.93;3.17;;;12.80;99.90;;;;;;5092329;28;20221;-76
2023/05/30 01:55:47;;;;;;;5.33;3.57;;;12.70;99.90;;;;;;5092591;28;20206;-79
2023/05/30 01:58:19;;;;;;;6.43;3.53;;;12.70;99.90;;;;;;5092699;28;20264;-79
2023/05/30 02:00:50;;;;;;;5.53;3.40;;;12.70;99.90;;;;;;5092869;28;20262;-78
2023/05/30 02:03:19;;;;;;;6.67;3.80;;;12.70;99.90;;;;;;5092976;28;20205;-78
2023/05/30 02:05:47;;;;;;;4.93;3.63;;;12.60;99.90;;;;;;5092843;28;20283;-78
2023/05/30 02:08:16;;;;;;;5.73;3.60;;;12.60;99.90;;;;;;5092415;28;20532;-77
2023/05/30 02:10:44;;;;;;;5.33;3.40;;;12.60;99.90;;;;;;5092749;28;20230;-76
2023/05/30 02:13:12;;;;;;;5.93;3.60;;;12.50;99.90;;;;;;5091920;28;20207;-77
2023/05/30 02:15:40;;;;;;;5.73;3.13;;;12.50;99.90;;;;;;5092473;28;20256;-78
2023/05/30 02:18:10;;;;;;;7.33;3.70;;;12.50;99.90;;;;;;5092682;28;20211;-79
2023/05/30 02:20:38;;;;;;;4.20;3.60;;;12.50;99.90;;;;;;5084343;28;20262;-78
2023/05/30 02:23:06;;;;;;;5.60;3.83;;;12.50;99.90;;;;;;5094814;28;20616;-76
2023/05/30 02:25:35;;;;;;;7.47;3.50;;;12.40;99.90;;;;;;5112707;28;20289;-78
2023/05/30 02:28:04;;;;;;;6.40;3.70;;;12.40;99.90;;;;;;5112758;28;20225;-79
2023/05/30 02:30:32;;;;;;;6.33;3.63;;;12.30;99.90;;;;;;5107811;28;20210;-78
2023/05/30 02:33:00;;;;;;;5.83;3.50;;;12.30;99.90;;;;;;5091891;28;20206;-77
2023/05/30 02:35:30;;;;;;;5.40;3.80;;;12.20;99.90;;;;;;5091903;28;20209;-77
2023/05/30 02:37:58;;;;;;;7.00;3.57;;;12.20;99.90;;;;;;5091983;28;20637;-77
2023/05/30 02:40:26;;;;;;;6.97;3.83;;;12.20;99.90;;;;;;5095188;28;20314;-78
2023/05/30 02:42:54;;;;;;;6.30;3.80;;;12.10;99.90;;;;;;5111863;28;20245;-78
2023/05/30 02:45:23;;;;;;;7.53;3.87;;;12.10;99.90;;;;;;5112465;28;20244;-78
2023/05/30 02:47:51;;;;;;;5.50;4.07;;;12.10;99.90;;;;;;5110246;28;20210;-77
2023/05/30 02:50:20;;;;;;;5.87;3.90;;;12.00;99.90;;;;;;5092049;28;20207;-77
2023/05/30 02:52:49;;;;;;;6.43;3.90;;;12.00;99.90;;;;;;5091273;28;20255;-77
2023/05/30 02:55:17;;;;;;;6.07;3.70;;;12.00;99.90;;;;;;5092034;28;20245;-77
2023/05/30 02:57:45;;;;;;;5.57;3.40;;;12.00;99.90;;;;;;5091232;28;20210;-78
2023/05/30 03:00:15;;;;;;;6.37;3.50;;;12.00;99.90;;;;;;5091868;28;20242;-78
2023/05/30 03:02:43;;;;;;;8.77;3.80;;;11.90;99.90;;;;;;5091977;28;20238;-77
2023/05/30 03:05:11;;;;;;;4.83;3.20;;;11.90;99.90;;;;;;5091947;28;20207;-76
2023/05/30 03:07:40;;;;;;;5.53;3.63;;;11.90;99.90;;;;;;5091996;28;20207;-77
2023/05/30 03:10:10;;;;;;;5.53;3.60;;;11.80;99.90;;;;;;5091447;28;20211;-77
2023/05/30 03:12:38;;;;;;;5.47;3.63;;;11.80;99.90;;;;;;5091180;28;20226;-77
2023/05/30 03:15:09;;;;;;;5.67;3.60;;;11.80;99.90;;;;;;5091674;28;20569;-78
2023/05/30 03:17:38;;;;;;;7.03;3.93;;;11.80;99.90;;;;;;5091678;28;20208;-77
2023/05/30 03:20:08;;;;;;;6.93;3.70;;;11.80;99.90;;;;;;5092128;28;20242;-78
2023/05/30 03:22:37;;;;;;;5.17;3.50;;;11.80;99.90;;;;;;5090027;28;20234;-77
2023/05/30 03:25:06;;;;;;;7.67;3.60;;;11.70;99.90;;;;;;5091452;28;20211;-78
2023/05/30 03:27:36;;;;;;;4.53;3.60;;;11.80;99.90;;;;;;5091241;28;20293;-78
2023/05/30 03:30:06;;;;;;;4.00;3.07;;;11.80;99.90;;;;;;5091516;28;20210;-79
2023/05/30 03:32:34;;;;;;;5.73;3.60;;;11.80;99.90;;;;;;5104483;28;20206;-78
2023/05/30 03:35:02;;;;;;;7.73;3.90;;;11.80;99.90;;;;;;5111936;28;20206;-77
2023/05/30 03:37:30;;;;;;;6.87;4.00;;;11.80;99.90;;;;;;5111697;28;20218;-77
2023/05/30 03:39:58;;;;;;;6.47;3.93;;;11.80;99.90;;;;;;5104307;28;20207;-76
2023/05/30 03:42:27;;;;;;;6.27;4.07;;;11.80;99.90;;;;;;5091105;28;20223;-77
2023/05/30 03:44:56;;;;;;;5.20;3.70;;;11.80;99.90;;;;;;5091548;28;20211;-77
2023/05/30 03:47:24;;;;;;;5.60;3.97;;;11.90;99.90;;;;;;5091376;28;20622;-78
2023/05/30 03:49:52;;;;;;;6.00;3.60;;;11.80;99.90;;;;;;5106751;28;20210;-77
2023/05/30 03:52:23;;;;;;;6.17;3.97;;;11.90;99.90;;;;;;5114741;28;20202;-79
2023/05/30 03:54:51;;;;;;;7.13;4.60;;;11.90;99.90;;;;;;5111962;28;20248;-76
2023/05/30 03:57:19;;;;;;;6.80;4.10;;;12.00;99.90;;;;;;5105316;28;20207;-77
2023/05/30 03:59:48;;;;;;;5.27;3.60;;;11.90;99.90;;;;;;5091523;28;20210;-76
2023/05/30 04:02:18;;;;;;;4.93;3.67;;;12.00;99.90;;;;;;5092232;28;20281;-77
2023/05/30 04:04:46;;;;;;;5.53;3.83;;;12.00;99.90;;;;;;5093651;28;20298;-76
2023/05/30 04:07:15;;;;;;;5.63;4.13;;;12.10;99.90;;;;;;5098941;28;20202;-77
2023/05/30 04:09:43;;;;;;;8.30;4.20;;;12.10;99.90;;;;;;5112569;28;20209;-77
2023/05/30 04:12:11;;;;;;;8.43;4.17;;;12.10;99.90;;;;;;5110217;28;20628;-77
2023/05/30 04:14:40;;;;;;;7.60;4.30;;;12.20;99.90;;;;;;5114412;28;20241;-77
2023/05/30 04:17:08;;;;;;;5.97;3.90;;;12.20;99.90;;;;;;5110092;28;20211;-77
2023/05/30 04:19:37;;;;;;;5.97;3.50;;;12.20;99.90;;;;;;5113633;28;20583;-75
2023/05/30 04:22:07;;;;;;;4.93;4.00;;;12.20;99.90;;;;;;5118860;27;20297;-75
2023/05/30 04:24:35;;;;;;;6.10;3.73;;;12.30;99.90;;;;;;5121890;27;20622;-78
2023/05/30 04:27:03;;;;;;;7.50;3.60;;;12.30;99.90;;;;;;5120391;27;20211;-78
2023/05/30 04:29:31;;;;;;;8.27;4.10;;;12.30;99.90;;;;;;5096402;28;20222;-76
2023/05/30 04:31:59;;;;;;;4.50;3.70;;;12.40;99.90;;;;;;5094040;28;20289;-77
2023/05/30 04:34:28;;;;;;;6.23;3.70;;;12.40;99.90;;;;;;5093995;28;20972;-76
2023/05/30 04:36:57;;;;;;;5.43;3.53;;;12.60;99.90;;;;;;5094280;28;20215;-78
2023/05/30 04:39:26;;;;;;;6.27;3.53;;;12.60;99.90;;;;;;5094166;28;20734;-77
2023/05/30 04:41:54;;;;;;;5.33;3.73;;;12.70;99.90;;;;;;5094026;28;20227;-78
2023/05/30 04:44:23;;;;;;;6.63;4.10;;;12.90;99.90;;;;;;5093966;28;20298;-76
2023/05/30 04:46:51;;;;;;;5.00;3.60;;;12.90;99.90;;;;;;5094054;28;20814;-75
2023/05/30 04:49:19;;;;;;;5.87;3.60;;;13.00;99.90;;;;;;5093678;28;20214;-77
2023/05/30 04:51:47;;;;;;;8.50;3.57;;;13.10;99.90;;;;;;5101372;28;20202;-76
2023/05/30 04:54:16;;;;;;;6.43;3.80;;;13.20;99.90;;;;;;5114487;28;20202;-77
2023/05/30 04:56:44;;;;;;;7.50;4.23;;;13.20;99.90;;;;;;5113561;28;20217;-76
2023/05/30 04:59:13;;;;;;;5.00;3.40;;;13.20;99.90;;;;;;5111151;28;20728;-78
2023/05/30 05:01:41;;;;;;;7.83;3.80;;;13.30;99.90;;;;;;5094545;28;20280;-76
2023/05/30 05:04:09;;;;;;;6.70;3.73;;;13.30;99.90;;;;;;5105648;28;20707;-77
2023/05/30 05:06:37;;;;;;;7.53;3.73;;;13.40;99.90;;;;;;5110845;28;20206;-75
2023/05/30 05:09:05;;;;;;;7.50;3.90;;;13.50;99.90;;;;;;5112457;28;20206;-77
2023/05/30 05:11:36;;;;;;;10.97;4.10;;;13.60;99.90;;;;;;5112981;28;20279;-79
2023/05/30 05:14:04;;;;;;;11.00;3.80;;;13.70;99.90;;;;;;5111169;28;20202;-76
2023/05/30 05:16:32;;;;;;;10.87;4.30;;;13.70;99.90;;;;;;5112992;28;20292;-77
2023/05/30 05:19:00;;;;;;;7.83;3.87;;;13.70;99.90;;;;;;5109388;28;20206;-74
2023/05/30 05:21:29;;;;;;;10.20;3.73;;;13.80;99.90;;;;;;5093325;28;20214;-76
2023/05/30 05:23:57;;;;;;;11.63;3.57;;;13.80;99.90;;;;;;5093426;28;20202;-77
2023/05/30 05:26:25;;;;;;;7.67;3.67;;;13.90;99.90;;;;;;5093518;28;20644;-78
2023/05/30 05:28:56;;;;;;;9.70;4.00;;;14.00;99.90;;;;;;5094220;28;20273;-78
2023/05/30 05:31:24;;;;;;;12.57;3.77;;;14.10;99.90;;;;;;5095023;28;20215;-79
2023/05/30 05:33:52;;;;;;;8.80;4.03;;;14.10;99.90;;;;;;5093560;28;20230;-78
2023/05/30 05:36:22;;;;;;;6.27;3.93;;;14.10;99.90;;;;;;5093132;28;20218;-77
2023/05/30 05:38:51;;;;;;;7.70;3.70;;;14.20;99.90;;;;;;5092177;28;20228;-75
2023/05/30 05:41:19;;;;;;;7.33;3.60;;;14.30;99.90;;;;;;5092471;28;20690;-76
2023/05/30 05:43:47;;;;;;;7.10;3.60;;;14.50;99.90;;;;;;5092932;28;20277;-78
2023/05/30 05:46:16;;;;;;;8.67;3.80;;;14.60;99.90;;;;;;5093139;28;20211;-78
2023/05/30 05:48:45;;;;;;;9.17;4.00;;;14.80;99.90;;;;;;5092604;28;20218;-78
2023/05/30 05:51:13;;;;;;;8.80;3.80;;;15.20;99.90;;;;;;5092864;28;20669;-75
2023/05/30 05:53:41;;;;;;;6.53;3.80;;;15.90;99.90;;;;;;5092746;28;20242;-77
2023/05/30 05:56:09;;;;;;;10.37;3.57;;;16.80;99.90;;;;;;5092767;28;20664;-77
2023/05/30 05:58:37;;;;;;;9.10;3.80;;;18.00;99.90;;;;;;5092963;28;20293;-75
2023/05/30 06:01:05;;;;;;;8.53;3.70;;;19.10;97.40;;;;;;5092687;28;20575;-77
2023/05/30 06:03:35;;;;;;;6.80;3.50;;;20.20;94.00;;;;;;5092590;28;20228;-79
2023/05/30 06:06:04;;;;;;;5.40;3.13;;;21.30;88.20;;;;;;5092546;28;20203;-75
2023/05/30 06:08:33;;;;;;;6.57;3.70;;;22.30;81.30;;;;;;5092859;28;20285;-77
2023/05/30 06:11:01;;;;;;;8.67;3.77;;;22.70;73.50;;;;;;5092763;28;20269;-79
2023/05/30 06:13:30;;;;;;;5.07;3.30;;;22.10;72.10;;;;;;5092252;28;20610;-78
2023/05/30 06:15:58;;;;;;;5.17;3.50;;;22.80;69.50;;;;;;5092575;28;20213;-76
2023/05/30 06:18:26;;;;;;;9.03;3.47;;;23.60;65.80;;;;;;5103387;28;20659;-76
2023/05/30 06:20:56;;;;;;;8.53;3.10;;;23.30;63.40;;;;;;5112803;28;20259;-76
2023/05/30 06:23:26;;;;;;;5.73;3.30;;;23.50;67.60;;;;;;5096582;28;20227;-76
2023/05/30 06:25:54;;;;;;;7.53;3.17;;;23.60;63.80;;;;;;5092420;28;20574;-76
2023/05/30 06:28:22;;;;;;;7.03;3.40;;;23.90;65.10;;;;;;5091535;28;20725;-77
2023/05/30 06:30:50;;;;;;;7.33;3.43;;;23.40;60.80;;;;;;5092334;28;20252;-78
2023/05/30 06:33:20;;;;;;;6.60;3.50;;;23.10;64.00;;;;;;5091958;28;20242;-78
2023/05/30 06:35:48;;;;;;;5.50;3.53;;;23.20;65.60;;;;;;5092132;28;20223;-77
2023/05/30 06:38:19;;;;;;;6.40;3.30;;;23.10;59.40;;;;;;5092157;28;20206;-79
2023/05/30 06:40:47;;;;;;;5.00;3.50;;;23.50;61.20;;;;;;5092485;28;20260;-75
2023/05/30 06:43:15;;;;;;;8.20;3.40;;;24.00;60.50;;;;;;5091752;28;20226;-77
2023/05/30 06:45:44;;;;;;;7.13;3.60;;;25.20;56.80;;;;;;5092228;28;20211;-76
2023/05/30 06:48:12;;;;;;;6.65;3.20;;;25.70;56.10;;;;;;5091594;28;20207;-77
2023/05/30 06:50:40;;;;;;;6.68;3.20;;;26.20;54.30;;;;;;5091834;28;20288;-77
2023/05/30 06:53:08;;;;;;;5.40;3.47;;;26.90;51.30;;;;;;5092107;28;20228;-78
2023/05/30 06:55:38;;;;;;;6.75;3.25;;;27.70;50.10;;;;;;5092049;28;20207;-75
2023/05/30 06:58:07;;;;;;;6.63;3.33;;;28.60;47.30;;;;;;5092079;28;20260;-77
2023/05/30 07:00:35;;;;;;;5.68;3.20;;;29.00;45.20;;;;;;5091760;28;20218;-77
2023/05/30 07:03:04;;;;;;;4.15;3.13;;;28.30;43.70;;;;;;5091901;28;20230;-77
2023/05/30 07:05:32;;;;;;;7.93;3.33;;;28.80;42.80;;;;;;5092045;28;20210;-76
2023/05/30 07:08:00;;;;;;;6.38;3.40;;;28.20;43.30;;;;;;5092077;28;20206;-76
2023/05/30 07:10:28;;;;;;;8.43;3.70;;;28.50;42.00;;;;;;5092067;28;20211;-76
2023/05/30 07:12:58;;;;;;;6.80;3.60;;;27.80;45.30;;;;;;5091199;28;20637;-77
2023/05/30 07:15:27;;;;;;;5.97;3.20;;;28.70;41.60;;;;;;5092065;28;20215;-77
2023/05/30 07:17:55;;;;;;;6.85;3.70;;;29.90;41.40;;;;;;5110561;28;20210;-77
2023/05/30 07:20:24;;;;;;;7.28;3.20;;;29.00;40.80;;;;;;5112180;28;20563;-75
2023/05/30 07:22:53;;;;;;;5.05;3.20;;;29.40;41.40;;;;;;5093710;28;20633;-78
2023/05/30 07:25:21;;;;;;;5.10;3.30;;;30.30;38.70;;;;;;5091212;28;20672;-79
2023/05/30 07:27:49;;;;;;;7.82;3.20;;;31.50;37.50;;;;;;5091388;28;20718;-77
2023/05/30 07:30:18;;;;;;;7.03;3.38;;;30.80;35.80;;;;;;5091300;28;20264;-78
2023/05/30 07:32:47;;;;;;;7.43;3.17;;;30.40;34.20;;;;;;5090506;28;20308;-79
2023/05/30 07:35:15;;;;;;;4.75;2.92;;;29.70;33.90;;;;;;5091120;28;20545;-76
2023/05/30 07:37:43;;;;;;;4.93;3.20;;;29.70;35.40;;;;;;5090565;28;20260;-78
2023/05/30 07:40:17;;;;;;;6.28;3.38;;;29.60;35.80;;;;;;5094822;28;20272;-77
2023/05/30 07:42:46;;;;;;;7.18;3.25;;;29.60;36.30;;;;;;5094632;28;20301;-78
2023/05/30 07:45:15;;;;;;;4.75;2.83;;;30.60;35.50;;;;;;5094265;28;20239;-76
2023/05/30 07:47:51;;;;;;;7.03;3.45;;;30.70;32.80;;;;;;5095553;28;20594;-78
2023/05/30 07:50:19;;;;;;;6.78;3.13;;;30.80;34.20;;;;;;5095104;28;20195;-79
2023/05/30 07:52:47;;;;;;;6.85;3.40;;;30.40;33.50;;;;;;5093931;28;20618;-76
2023/05/30 07:55:16;;;;;;;6.22;3.03;;;30.10;33.60;;;;;;5095486;28;20211;-77
2023/05/30 07:57:44;;;;;;;7.18;3.22;;;30.50;32.60;;;;;;5094873;28;20684;-77
2023/05/30 08:00:13;;;;;;;4.32;3.03;;;30.50;31.30;;;;;;5095584;28;20211;-77
2023/05/30 08:02:42;;;;;;;5.05;2.90;;;30.60;33.30;;;;;;5095204;28;20624;-76
2023/05/30 08:05:11;;;;;;;4.45;3.05;;;30.60;32.80;;;;;;5097706;28;20289;-77
2023/05/30 08:07:39;;;;;;;4.78;3.10;;;31.00;32.60;;;;;;5095491;28;20206;-77
2023/05/30 08:10:09;;;;;;;6.50;3.20;;;30.80;32.30;;;;;;5095037;28;20214;-77
2023/05/30 08:12:38;;;;;;;6.65;3.20;;;30.90;31.00;;;;;;5094782;28;20397;-78
2023/05/30 08:15:09;;;;;;;7.00;3.28;;;30.90;34.70;;;;;;5102105;28;20206;-77
2023/05/30 08:17:37;;;;;;;10.02;3.42;;;31.80;31.60;;;;;;5095436;28;20203;-76
2023/05/30 08:20:08;;;;;;;5.07;3.22;;;31.20;31.50;;;;;;5094681;28;20211;-78
2023/05/30 08:22:37;;;;;;;5.70;3.05;;;31.50;30.90;;;;;;5086308;28;20238;-75
2023/05/30 08:25:07;;;;;;;6.75;3.20;;;31.30;31.80;;;;;;5094640;28;20262;-80
2023/05/30 08:27:37;;;;;;;8.02;4.35;;;31.00;33.30;;;;;;5094708;28;20232;-78
2023/05/30 08:30:07;;;;;;;6.75;3.35;;;30.50;33.40;;;;;;5094821;28;20221;-77
2023/05/30 08:32:37;;;;;;;6.22;3.33;;;30.10;34.20;;;;;;5094940;28;20206;-77
2023/05/30 08:35:08;;;;;;;9.50;3.53;;;31.30;29.50;;;;;;5094749;28;20213;-80
2023/05/30 08:37:37;;;;;;;8.60;3.25;;;31.40;31.30;;;;;;5094256;28;20214;-78
2023/05/30 08:40:08;;;;;;;4.90;3.30;;;31.90;29.20;;;;;;5098113;28;20209;-79
2023/05/30 08:42:36;;;;;;;5.97;3.15;;;30.90;29.40;;;;;;5106421;28;20283;-77
2023/05/30 08:45:05;;;;;;;6.03;2.85;;;31.10;32.40;;;;;;5114483;28;20704;-78
2023/05/30 08:47:35;;;;;;;7.75;3.58;;;31.80;31.90;;;;;;5115176;28;20206;-76
2023/05/30 08:50:04;;;;;;;5.25;3.10;;;31.60;30.10;;;;;;5098361;28;20211;-79
2023/05/30 08:52:33;;;;;;;5.40;3.15;;;31.70;28.80;;;;;;5094216;28;20199;-77
2023/05/30 08:55:08;;;;;;;4.00;3.05;;;32.40;31.60;;;;;;5094726;28;20297;-76
2023/05/30 08:57:44;;;;;;;4.43;3.13;;;32.30;29.20;;;;;;5097409;28;20257;-76
2023/05/30 09:00:13;;;;;;;8.05;3.28;;;31.60;30.60;;;;;;5096827;28;20206;-76
2023/05/30 09:02:44;;;;;;;6.03;3.17;;;31.60;29.10;;;;;;5096733;28;20207;-77
2023/05/30 09:05:15;;;;;;;5.00;3.10;;;31.80;29.60;;;;;;5097165;28;20230;-78
2023/05/30 09:07:45;;;;;;;7.82;3.55;;;32.00;28.70;;;;;;5096022;28;20207;-75
2023/05/30 09:10:16;;;;;;;4.75;3.20;;;31.80;29.60;;;;;;5095434;28;20207;-77
2023/05/30 09:12:44;;;;;;;5.55;3.30;;;31.50;28.40;;;;;;5094716;28;20701;-76
2023/05/30 09:15:12;;;;;;;7.93;3.33;;;31.20;30.30;;;;;;5101533;28;20238;-78
2023/05/30 09:17:41;;;;;;;8.13;3.20;;;31.40;30.60;;;;;;5095184;28;20203;-78
2023/05/30 09:20:16;;;;;;;5.28;3.22;;;31.90;31.80;;;;;;5096922;28;20515;-78
2023/05/30 09:22:45;;;;;;;7.70;3.53;;;31.30;30.70;;;;;;5093697;28;20245;-76
2023/05/30 09:25:16;;;;;;;6.80;3.33;;;30.40;32.40;;;;;;5095688;28;20252;-77
2023/05/30 09:27:49;;;;;;;6.32;3.40;;;30.90;31.60;;;;;;5095770;28;20211;-75
2023/05/30 09:30:18;;;;;;;5.25;3.20;;;32.10;30.30;;;;;;5094172;28;20203;-76
2023/05/30 09:33:01;;;;;;;8.07;3.45;;;31.90;30.10;;;;;;5097171;28;20749;-76
2023/05/30 09:35:30;;;;;;;5.68;3.70;;;32.30;28.10;;;;;;5096574;28;20240;-77
2023/05/30 09:38:04;;;;;;;7.57;3.58;;;30.80;31.50;;;;;;5094101;28;20210;-76
2023/05/30 09:40:34;;;;;;;5.75;3.70;;;31.80;30.10;;;;;;5093413;28;20206;-78
2023/05/30 09:43:03;;;;;;;5.97;3.50;;;32.30;33.20;;;;;;5092519;28;20652;-78
2023/05/30 09:45:31;;;;;;;8.55;3.53;;;32.10;28.60;;;;;;5092984;28;20214;-77
2023/05/30 09:47:59;;;;;;;6.60;3.05;;;31.80;29.00;;;;;;5093264;28;20214;-76
2023/05/30 09:50:27;;;;;;;7.00;3.70;;;32.10;30.30;;;;;;5093281;28;20211;-77
2023/05/30 09:52:56;;;;;;;6.18;3.20;;;32.70;28.90;;;;;;5092586;28;20683;-77
2023/05/30 09:55:25;;;;;;;7.68;3.10;;;33.10;30.20;;;;;;5092726;28;20314;-75
2023/05/30 09:57:55;;;;;;;7.63;3.15;;;33.10;27.00;;;;;;5092927;28;20206;-76
2023/05/30 10:00:25;;;;;;;4.63;2.97;;;33.20;25.80;;;;;;5092914;28;20644;-78
2023/05/30 10:02:55;;;;;;;7.60;3.05;;;32.90;30.00;;;;;;5092747;28;20235;-75
2023/05/30 10:05:25;;;;;;;6.63;3.20;;;33.30;27.90;;;;;;5093110;28;20238;-78
2023/05/30 10:07:56;;;;;;;8.57;3.10;;;33.10;27.20;;;;;;5093062;28;20210;-78
2023/05/30 10:10:25;;;;;;;6.43;3.25;;;31.10;26.50;;;;;;5101338;28;20259;-76
2023/05/30 10:12:57;;;;;;;6.53;3.20;;;28.70;29.00;;;;;;5112705;28;20290;-79
2023/05/30 10:15:26;;;;;;;7.07;3.00;;;28.00;31.20;;;;;;5114723;28;20644;-76
2023/05/30 10:17:59;;;;;;;8.20;2.90;;;28.70;32.20;;;;;;5113107;28;20206;-77
2023/05/30 10:20:28;;;;;;;7.00;2.92;;;29.90;31.40;;;;;;5100726;28;20264;-76
2023/05/30 10:22:57;;;;;;;6.78;2.97;;;30.30;31.70;;;;;;5092251;28;20211;-77
2023/05/30 10:25:28;;;;;;;5.95;2.95;;;29.90;30.90;;;;;;5092625;28;20230;-76
2023/05/30 10:28:01;;;;;;;8.15;2.88;;;30.10;31.40;;;;;;5092004;28;20199;-77
2023/05/30 10:30:31;;;;;;;4.78;3.20;;;30.20;31.20;;;;;;5092561;28;20293;-77
2023/05/30 10:33:02;;;;;;;4.53;2.67;;;30.60;30.10;;;;;;5091814;28;20225;-75
2023/05/30 10:35:31;;;;;;;4.97;2.85;;;30.80;30.20;;;;;;5092386;28;20230;-77
2023/05/30 10:38:05;;;;;;;4.18;2.85;;;31.60;30.00;;;;;;5092375;28;20301;-76
2023/05/30 10:40:46;;;;;;;3.55;2.58;;;31.50;28.30;;;;;;5092405;28;20206;-75
2023/05/30 10:43:39;;;;;;;6.63;3.20;;;30.80;28.10;;;;;;5092139;28;20514;-76
2023/05/30 10:46:22;;;;;;;5.43;3.30;;;29.40;28.90;;;;;;5091939;28;20248;-75
2023/05/30 10:48:53;;;;;;;4.00;3.10;;;27.90;32.40;;;;;;5092086;28;20219;-78
2023/05/30 10:51:21;;;;;;;5.32;2.80;;;28.50;34.70;;;;;;5091370;28;20664;-78
2023/05/30 10:53:50;;;;;;;4.65;2.85;;;29.50;33.00;;;;;;5091919;28;20289;-77
2023/05/30 10:56:41;;;;;;;10.57;3.00;;;30.20;33.60;;;;;;5091894;28;20223;-78
2023/05/30 10:59:15;;;;;;;4.07;2.90;;;30.10;30.10;;;;;;5092144;28;20248;-77
2023/05/30 11:01:59;;;;;;;6.85;2.70;;;30.30;28.30;;;;;;5092074;28;20194;-76
2023/05/30 11:04:34;;;;;;;5.00;2.70;;;28.50;28.30;;;;;;5091600;28;20203;-78
2023/05/30 11:07:07;;;;;;;6.00;3.13;;;27.60;32.10;;;;;;5091766;28;20194;-79
2023/05/30 11:09:40;;;;;;;5.50;2.80;;;26.70;34.30;;;;;;5091392;28;20211;-79
2023/05/30 11:12:13;;;;;;;6.17;3.30;;;26.00;36.30;;;;;;5098364;28;20318;-76
2023/05/30 11:14:55;;;;;;;6.17;3.20;;;25.30;37.50;;;;;;5086630;28;20206;-79
2023/05/30 11:17:30;;;;;;;7.67;3.30;;;25.00;38.80;;;;;;5096254;28;20200;-79
2023/05/30 11:20:07;;;;;;;6.80;3.40;;;24.50;41.10;;;;;;5118221;28;20205;-75
2023/05/30 11:22:38;;;;;;;7.63;3.50;;;24.10;41.00;;;;;;5119547;28;20186;-75
2023/05/30 11:25:23;;;;;;;7.43;3.30;;;24.30;40.90;;;;;;5118291;28;20202;-76
2023/05/30 11:28:16;;;;;;;4.53;2.93;;;25.10;39.00;;;;;;5112936;28;20566;-76
2023/05/30 11:30:50;;;;;;;7.07;3.20;;;26.50;37.40;;;;;;5091919;28;20298;-78
2023/05/30 11:33:19;;;;;;;4.57;3.13;;;25.90;37.90;;;;;;5099251;28;20214;-76
2023/05/30 11:35:49;;;;;;;6.13;3.27;;;25.80;38.90;;;;;;5095826;28;20226;-77
2023/05/30 11:38:19;;;;;;;8.87;3.60;;;25.10;40.40;;;;;;5094153;28;20290;-76
2023/05/30 11:40:47;;;;;;;7.80;3.20;;;24.50;41.50;;;;;;5095180;28;20656;-77
2023/05/30 11:43:17;;;;;;;7.57;3.90;;;24.40;43.70;;;;;;5096045;28;20242;-76
2023/05/30 11:45:46;;;;;;;5.67;3.43;;;23.80;44.50;;;;;;5107219;28;20206;-77
2023/05/30 11:48:17;;;;;;;7.53;3.50;;;23.40;44.70;;;;;;5117164;28;20301;-77
2023/05/30 11:50:46;;;;;;;6.87;3.53;;;23.20;45.40;;;;;;5117360;28;20545;-77
2023/05/30 11:53:16;;;;;;;7.13;4.07;;;22.70;44.70;;;;;;5107424;28;20297;-77
2023/05/30 11:55:45;;;;;;;5.33;3.60;;;22.50;45.80;;;;;;5095658;28;20295;-78
2023/05/30 11:58:15;;;;;;;7.27;3.80;;;22.20;47.20;;;;;;5096956;28;20214;-76
2023/05/30 12:00:44;;;;;;;10.33;4.10;;;22.00;47.80;;;;;;5094901;28;20207;-75
2023/05/30 12:03:16;;;;;;;7.20;3.80;;;21.80;48.80;;;;;;5103797;28;20210;-79
2023/05/30 12:05:47;;;;;;;9.00;4.10;;;21.80;47.50;;;;;;5114413;28;20237;-77
2023/05/30 12:08:17;;;;;;;11.07;3.83;;;21.80;50.50;;;;;;5113435;27;20311;-77
2023/05/30 12:10:46;;;;;;;6.53;3.53;;;21.60;51.90;;;;;;5110932;28;20755;-78
2023/05/30 12:13:14;;;;;;;8.10;3.50;;;21.60;50.50;;;;;;5115351;28;20210;-78
2023/05/30 12:15:43;;;;;;;5.47;3.40;;;21.60;49.90;;;;;;5113304;28;20290;-78
2023/05/30 12:18:11;;;;;;;5.73;3.77;;;21.60;49.30;;;;;;5091080;28;20253;-76
2023/05/30 12:20:43;;;;;;;7.43;3.70;;;21.80;49.80;;;;;;5094618;28;20199;-77
2023/05/30 12:23:13;;;;;;;4.67;3.30;;;21.70;50.50;;;;;;5094679;28;20214;-77
2023/05/30 12:25:50;;;;;;;6.20;3.60;;;21.80;50.40;;;;;;5092703;28;20207;-76
2023/05/30 12:28:18;;;;;;;4.80;3.40;;;21.90;49.30;;;;;;5094843;28;20214;-77
2023/05/30 12:30:46;;;;;;;5.03;3.40;;;22.00;48.60;;;;;;5094751;28;20206;-78
2023/05/30 12:33:15;;;;;;;9.53;3.67;;;22.20;51.60;;;;;;5097497;28;20549;-78
2023/05/30 12:35:44;;;;;;;6.70;3.23;;;22.50;50.60;;;;;;5096619;27;20269;-75
2023/05/30 12:38:15;;;;;;;7.57;3.63;;;22.60;48.30;;;;;;5108315;28;20736;-78
2023/05/30 12:40:46;;;;;;;7.10;3.47;;;22.70;48.20;;;;;;5114463;28;20190;-77
2023/05/30 12:43:15;;;;;;;8.67;3.63;;;22.90;46.80;;;;;;5097486;28;20258;-77
2023/05/30 12:45:45;;;;;;;6.10;3.47;;;22.80;46.40;;;;;;5096086;28;20195;-76
2023/05/30 12:48:13;;;;;;;7.97;3.50;;;22.90;47.30;;;;;;5095958;28;20207;-80
2023/05/30 12:50:41;;;;;;;7.57;3.43;;;23.20;47.90;;;;;;5095780;28;20245;-78
2023/05/30 12:53:10;;;;;;;7.97;3.80;;;23.40;49.80;;;;;;5103992;28;20198;-77
2023/05/30 12:55:39;;;;;;;6.57;3.20;;;23.40;46.70;;;;;;5107638;28;20571;-76
2023/05/30 12:58:08;;;;;;;7.93;3.90;;;23.50;48.10;;;;;;5103510;28;20202;-79
2023/05/30 13:00:36;;;;;;;9.20;3.30;;;23.80;45.50;;;;;;5093271;28;20203;-78